Weather reports worldwide

Advertisment
Kinbrace, United Kingdom (99016): temperature & dewpoint: 23.09.2020 02:00:00 - 29.09.2020 02:00:00 (BST)Kinbrace, United Kingdom (99016): wind speed & gusts: 23.09.2020 02:00:00 - 29.09.2020 02:00:00 (BST)Kinbrace, United Kingdom (99016): wind direction: 23.09.2020 02:00:00 - 29.09.2020 02:00:00 (BST)Kinbrace, United Kingdom (99016): precipitation: 23.09.2020 02:00:00 - 29.09.2020 02:00:00 (BST)
Date & Time tt [°C] td [°C] ff [km/h] ff [kn] fx [km/h] fx [kn] dd rr [mm]
29.09.2020 02:00:00 - - - - - - - -
29.09.2020 01:00:00 7,5 6,4 9 5 - - E 0,0
29.09.2020 00:00:00 6,5 5,5 8 4 - - SE -
28.09.2020 23:00:00 7,7 5,7 8 4 - - SE 0,0
28.09.2020 22:00:00 8,2 5,5 8 4 - - WNW 0,0
28.09.2020 21:00:00 8,0 6,1 11 6 - - WSW 0,0
28.09.2020 20:00:00 8,7 6,5 15 8 - - WSW 0,0
28.09.2020 19:00:00 9,5 6,0 9 5 - - WNW 0,0
28.09.2020 18:00:00 12,8 7,3 15 8 - - W -
28.09.2020 17:00:00 14,0 7,2 16 9 - - W -
28.09.2020 16:00:00 15,3 8,1 22 12 - - W 0,0
28.09.2020 15:00:00 15,7 9,0 24 13 - - W 0,0
28.09.2020 14:00:00 15,8 10,5 16 9 - - W 0,2
28.09.2020 13:00:00 12,4 9,9 5 3 - - ESE 0,0
28.09.2020 12:00:00 12,2 10,0 5 3 - - SW -
28.09.2020 11:00:00 13,0 8,4 15 8 - - S 0,0
28.09.2020 10:00:00 11,9 7,3 18 10 - - ESE 0,0
28.09.2020 09:00:00 10,5 6,8 9 5 - - SE 0,0
28.09.2020 08:00:00 9,9 5,7 11 6 - - ESE 0,0
28.09.2020 07:00:00 8,0 4,1 4 2 - - S 0,0
28.09.2020 06:00:00 6,9 2,6 4 2 - - SW -
28.09.2020 05:00:00 7,2 2,8 4 2 - - S 0,0
28.09.2020 04:00:00 6,4 3,6 4 2 - - ESE 0,0
28.09.2020 03:00:00 6,6 4,2 9 5 - - SSW 0,0
28.09.2020 02:00:00 6,2 4,7 5 3 - - S 0,0
28.09.2020 01:00:00 5,7 4,5 2 1 - - WSW 0,0
28.09.2020 00:00:00 5,7 4,7 2 1 - - SSW 0,0
27.09.2020 23:00:00 5,6 4,1 2 1 - - WNW 0,0
27.09.2020 22:00:00 7,0 5,0 9 5 - - SSE 0,0
27.09.2020 21:00:00 5,6 3,9 8 4 - - SE -
27.09.2020 20:00:00 6,3 3,7 15 8 - - SE 0,0
27.09.2020 19:00:00 6,8 3,8 8 4 - - SE 0,0
27.09.2020 18:00:00 8,2 4,3 8 4 - - SE 0,0
27.09.2020 17:00:00 8,7 3,9 13 7 - - SSE -
27.09.2020 16:00:00 8,6 4,3 16 9 - - SSE 0,0
27.09.2020 15:00:00 9,4 4,2 15 8 - - SSE 0,0
27.09.2020 14:00:00 11,0 4,2 11 6 - - S 0,0
27.09.2020 13:00:00 10,4 4,1 8 4 - - S 0,0
27.09.2020 12:00:00 9,0 4,2 5 3 - - SSE 0,0
27.09.2020 11:00:00 7,2 5,2 8 4 - - SSW 0,0
27.09.2020 10:00:00 3,5 3,4 2 1 - - S 0,2
27.09.2020 09:00:00 -0,1 -0,2 2 1 - - NW -
27.09.2020 08:00:00 -0,8 -1,1 5 3 - - SSE 0,0
27.09.2020 07:00:00 -1,9 -2,2 2 1 - - SSW 0,0
27.09.2020 06:00:00 -1,4 -1,6 2 1 - - SSE 0,0
27.09.2020 05:00:00 -2,2 -2,4 4 2 - - SSE 0,0
27.09.2020 04:00:00 -1,5 -1,8 4 2 - - SSE 0,0
27.09.2020 03:00:00 -1,7 -2,1 5 3 - - ESE 0,0
27.09.2020 02:00:00 -0,4 -0,6 4 2 - - ESE 0,0
27.09.2020 01:00:00 -0,4 -0,9 4 2 - - ESE 0,0
27.09.2020 00:00:00 0,8 0,3 4 2 - - SSE 0,0
26.09.2020 23:00:00 1,8 1,4 4 2 - - S 0,0
26.09.2020 22:00:00 0,9 0,1 2 1 - - NNW 0,0
26.09.2020 21:00:00 1,6 0,2 2 1 - - NW 0,0
26.09.2020 20:00:00 3,7 2,2 5 3 - - S 0,0
26.09.2020 19:00:00 6,6 3,1 13 7 - - N 0,0
26.09.2020 18:00:00 9,5 3,8 18 10 - - N 0,0
26.09.2020 17:00:00 10,6 4,1 21 11 - - N -
26.09.2020 16:00:00 11,1 4,9 24 13 - - N 0,0
26.09.2020 15:00:00 12,3 4,4 22 12 - - N 0,0
26.09.2020 14:00:00 11,6 5,5 24 13 - - N 0,0
26.09.2020 13:00:00 11,8 5,0 24 13 - - N 0,0
26.09.2020 12:00:00 12,0 5,3 21 11 - - N 0,0
26.09.2020 11:00:00 11,0 5,8 21 11 - - N 0,0
26.09.2020 10:00:00 8,8 7,2 9 5 - - N 0,0
26.09.2020 09:00:00 6,8 6,5 4 2 - - NNW 0,0
26.09.2020 08:00:00 5,6 5,4 11 6 - - N 0,4
26.09.2020 07:00:00 4,6 4,4 13 7 - - N 0,4
26.09.2020 06:00:00 2,6 2,0 5 3 - - N 0,4
26.09.2020 05:00:00 2,8 1,8 8 4 - - N 0,6
26.09.2020 04:00:00 4,2 3,4 11 6 - - NNE 0,0
26.09.2020 03:00:00 4,5 3,3 11 6 - - NNE 0,4
26.09.2020 02:00:00 4,8 4,1 11 6 - - NNE 0,0
26.09.2020 01:00:00 5,0 4,2 13 7 - - N 0,0
26.09.2020 00:00:00 3,9 2,6 11 6 - - NNW 0,0
25.09.2020 23:00:00 5,9 4,6 18 10 - - NNW 0,2
25.09.2020 22:00:00 4,9 3,6 15 8 - - NNW 0,0
25.09.2020 21:00:00 4,3 2,8 9 5 - - NNW -
25.09.2020 20:00:00 5,8 3,6 16 9 - - NNW 0,0
25.09.2020 19:00:00 7,1 2,9 24 13 - - NW 0,0
25.09.2020 18:00:00 8,6 2,6 31 17 46 25 NNW 0,0
25.09.2020 17:00:00 9,7 3,2 31 17 52 28 NNW 0,0
25.09.2020 16:00:00 9,6 2,6 35 19 57 31 NNW 0,0
25.09.2020 15:00:00 11,5 4,2 31 17 54 29 N 0,0
25.09.2020 14:00:00 10,7 2,6 35 19 52 28 NNW 0,0
25.09.2020 13:00:00 9,9 3,6 31 17 46 25 N 0,0
25.09.2020 12:00:00 8,9 4,6 24 13 - - N 0,0
25.09.2020 11:00:00 8,3 5,1 31 17 - - NNW 0,0
25.09.2020 10:00:00 8,2 5,7 21 11 - - N 0,0
25.09.2020 09:00:00 6,9 5,4 16 9 - - NNW 0,0
25.09.2020 08:00:00 6,7 6,2 13 7 - - NNW -
25.09.2020 07:00:00 6,6 6,4 9 5 - - N 1,0
25.09.2020 06:00:00 6,3 6,2 9 5 - - N 1,2
25.09.2020 05:00:00 4,7 4,6 8 4 - - N 0,2
25.09.2020 04:00:00 3,3 3,0 2 1 - - NNE 0,0
25.09.2020 03:00:00 3,4 2,9 4 2 - - E 0,0
25.09.2020 02:00:00 4,4 3,9 2 1 - - NW 0,2
25.09.2020 01:00:00 4,6 4,2 5 3 - - E 0,0
25.09.2020 00:00:00 4,7 4,1 4 2 - - ESE 0,2
24.09.2020 23:00:00 4,4 3,8 4 2 - - S 0,0
24.09.2020 22:00:00 4,2 3,4 4 2 - - SSW 0,0
24.09.2020 21:00:00 4,2 3,5 4 2 - - SSE 0,0
24.09.2020 20:00:00 4,8 3,1 4 2 - - NNW -
24.09.2020 19:00:00 6,8 3,9 4 2 - - NNW 0,0
24.09.2020 18:00:00 9,1 4,7 11 6 - - NNW 0,0
24.09.2020 17:00:00 9,8 4,0 15 8 - - N 0,0
24.09.2020 16:00:00 10,4 3,3 15 8 - - N 0,0
24.09.2020 15:00:00 11,1 3,6 18 10 - - N 0,0
24.09.2020 14:00:00 10,6 3,6 13 7 - - N 0,0
24.09.2020 13:00:00 9,7 7,2 5 3 - - N 0,0
24.09.2020 12:00:00 6,8 6,7 4 2 - - NW 0,0
24.09.2020 11:00:00 3,0 2,9 2 1 - - W 0,0
24.09.2020 10:00:00 -0,3 -0,4 0 0 - - N 0,0
24.09.2020 09:00:00 -2,2 -2,5 0 0 - - N 0,0
24.09.2020 08:00:00 -2,8 -3,1 2 1 - - WNW 0,0
24.09.2020 07:00:00 -3,4 -3,8 2 1 - - NNW 0,0
24.09.2020 06:00:00 -3,9 -4,3 4 2 - - NE 0,0
24.09.2020 05:00:00 -4,0 -4,5 2 1 - - NNW -
24.09.2020 04:00:00 -3,5 -4,0 0 0 - - N 0,0
24.09.2020 03:00:00 -2,5 -2,9 4 2 - - N 0,0
24.09.2020 02:00:00 -2,6 -3,1 2 1 - - ENE 0,0
24.09.2020 01:00:00 -1,6 -2,2 2 1 - - ENE 0,0
24.09.2020 00:00:00 -0,6 -1,3 2 1 - - NNW 0,0
23.09.2020 23:00:00 0,7 -0,2 2 1 - - S 0,0
23.09.2020 22:00:00 3,1 1,8 4 2 - - SSE 0,0
23.09.2020 21:00:00 5,5 3,2 11 6 - - ESE 0,0
23.09.2020 20:00:00 6,2 3,5 15 8 - - ESE 0,0
23.09.2020 19:00:00 8,6 4,1 13 7 - - SSE 0,0
23.09.2020 18:00:00 9,8 3,9 16 9 - - SSE 0,0
23.09.2020 17:00:00 11,7 3,5 9 5 - - SSE 0,0
23.09.2020 16:00:00 12,0 3,2 11 6 - - SSE 0,0
23.09.2020 15:00:00 11,5 2,7 16 9 - - SSE 0,0
23.09.2020 14:00:00 12,2 1,4 8 4 - - SSW 0,0
23.09.2020 13:00:00 12,2 2,2 5 3 - - WSW 0,0
23.09.2020 12:00:00 10,5 3,1 8 4 - - NW 0,0
23.09.2020 11:00:00 9,8 4,6 2 1 - - NNE 0,0
23.09.2020 10:00:00 7,8 5,8 2 1 - - SSE 0,0
23.09.2020 09:00:00 3,9 3,3 4 2 - - SE 0,0
23.09.2020 08:00:00 2,4 2,0 11 6 - - E 0,0
23.09.2020 07:00:00 2,6 2,2 5 3 - - SE 0,0
23.09.2020 06:00:00 2,2 2,0 5 3 - - E 0,0
23.09.2020 05:00:00 2,3 1,9 4 2 - - E 0,0
23.09.2020 04:00:00 2,5 1,5 5 3 - - N -
23.09.2020 03:00:00 4,6 4,0 9 5 - - NNW 0,0
23.09.2020 02:00:00 5,5 4,7 4 2 - - N 0,0

tt = temperature
td = dewpoint
ff = wind speed
fx = gusts
dd = wind direction
rr = precipitation

Next stations